sensor_id;sensor_type;location;lat;lon;timestamp;pressure;altitude;pressure_sealevel;temperature;humidity
66396;BME280;53207;51.378;-1.342;2023-02-23T00:01:11;100162.50;;;18.75;37.89
66396;BME280;53207;51.378;-1.342;2023-02-23T00:03:39;100161.77;;;18.79;37.76
66396;BME280;53207;51.378;-1.342;2023-02-23T00:06:06;100164.99;;;18.77;37.71
66396;BME280;53207;51.378;-1.342;2023-02-23T00:08:34;100165.45;;;18.69;38.10
66396;BME280;53207;51.378;-1.342;2023-02-23T00:11:02;100168.44;;;18.68;38.35
66396;BME280;53207;51.378;-1.342;2023-02-23T00:13:30;100167.48;;;19.20;38.50
66396;BME280;53207;51.378;-1.342;2023-02-23T00:15:57;100169.95;;;19.17;38.69
66396;BME280;53207;51.378;-1.342;2023-02-23T00:18:24;100171.98;;;19.06;38.76
66396;BME280;53207;51.378;-1.342;2023-02-23T00:20:56;100172.28;;;18.95;38.79
66396;BME280;53207;51.378;-1.342;2023-02-23T00:23:23;100174.29;;;18.97;38.75
66396;BME280;53207;51.378;-1.342;2023-02-23T00:25:51;100176.75;;;18.60;38.94
66396;BME280;53207;51.378;-1.342;2023-02-23T00:28:18;100177.10;;;18.55;38.86
66396;BME280;53207;51.378;-1.342;2023-02-23T00:30:45;100179.66;;;18.26;38.83
66396;BME280;53207;51.378;-1.342;2023-02-23T00:33:13;100182.48;;;18.66;38.91
66396;BME280;53207;51.378;-1.342;2023-02-23T00:35:40;100182.20;;;18.69;38.73
66396;BME280;53207;51.378;-1.342;2023-02-23T00:38:07;100182.55;;;18.66;38.69
66396;BME280;53207;51.378;-1.342;2023-02-23T00:40:35;100180.66;;;18.64;38.62
66396;BME280;53207;51.378;-1.342;2023-02-23T00:43:04;100180.82;;;18.66;38.46
66396;BME280;53207;51.378;-1.342;2023-02-23T00:45:32;100181.10;;;18.58;38.46
66396;BME280;53207;51.378;-1.342;2023-02-23T00:47:59;100179.16;;;18.56;38.43
66396;BME280;53207;51.378;-1.342;2023-02-23T00:50:26;100178.75;;;18.49;38.44
66396;BME280;53207;51.378;-1.342;2023-02-23T00:52:56;100182.58;;;18.47;38.41
66396;BME280;53207;51.378;-1.342;2023-02-23T00:55:23;100182.26;;;18.32;38.51
66396;BME280;53207;51.378;-1.342;2023-02-23T00:57:50;100184.07;;;18.34;38.40
66396;BME280;53207;51.378;-1.342;2023-02-23T01:00:18;100184.44;;;18.31;38.35
66396;BME280;53207;51.378;-1.342;2023-02-23T01:02:45;100189.26;;;18.23;38.40
66396;BME280;53207;51.378;-1.342;2023-02-23T01:05:13;100188.84;;;18.40;38.15
66396;BME280;53207;51.378;-1.342;2023-02-23T01:07:40;100185.84;;;18.30;38.19
66396;BME280;53207;51.378;-1.342;2023-02-23T01:10:08;100188.39;;;18.30;38.11
66396;BME280;53207;51.378;-1.342;2023-02-23T01:12:35;100187.62;;;18.22;38.15
66396;BME280;53207;51.378;-1.342;2023-02-23T01:15:03;100190.08;;;18.21;38.11
66396;BME280;53207;51.378;-1.342;2023-02-23T01:17:31;100189.66;;;18.14;38.16
66396;BME280;53207;51.378;-1.342;2023-02-23T01:19:58;100190.61;;;17.91;38.12
66396;BME280;53207;51.378;-1.342;2023-02-23T01:22:25;100191.90;;;18.37;38.09
66396;BME280;53207;51.378;-1.342;2023-02-23T01:24:53;100191.95;;;18.12;38.03
66396;BME280;53207;51.378;-1.342;2023-02-23T01:27:20;100192.52;;;18.05;38.06
66396;BME280;53207;51.378;-1.342;2023-02-23T01:29:47;100193.65;;;17.99;38.11
66396;BME280;53207;51.378;-1.342;2023-02-23T01:32:15;100199.18;;;18.04;38.00
66396;BME280;53207;51.378;-1.342;2023-02-23T01:34:42;100198.36;;;18.05;37.95
66396;BME280;53207;51.378;-1.342;2023-02-23T01:37:09;100198.38;;;17.92;38.07
66396;BME280;53207;51.378;-1.342;2023-02-23T01:39:37;100197.48;;;18.02;37.91
66396;BME280;53207;51.378;-1.342;2023-02-23T01:42:08;100197.82;;;17.91;38.05
66396;BME280;53207;51.378;-1.342;2023-02-23T01:45:21;100196.45;;;17.97;37.90
66396;BME280;53207;51.378;-1.342;2023-02-23T01:47:52;100198.93;;;17.90;37.91
66396;BME280;53207;51.378;-1.342;2023-02-23T01:50:21;100198.18;;;17.96;37.81
66396;BME280;53207;51.378;-1.342;2023-02-23T01:52:51;100203.20;;;17.92;37.85
66396;BME280;53207;51.378;-1.342;2023-02-23T01:55:20;100201.10;;;17.83;37.88
66396;BME280;53207;51.378;-1.342;2023-02-23T01:57:47;100204.11;;;17.88;37.77
66396;BME280;53207;51.378;-1.342;2023-02-23T02:00:16;100203.95;;;17.87;37.76
66396;BME280;53207;51.378;-1.342;2023-02-23T02:02:43;100202.69;;;17.84;37.77
66396;BME280;53207;51.378;-1.342;2023-02-23T02:05:11;100205.39;;;17.83;37.78
66396;BME280;53207;51.378;-1.342;2023-02-23T02:07:41;100205.79;;;17.82;37.74
66396;BME280;53207;51.378;-1.342;2023-02-23T02:10:11;100206.24;;;17.77;37.76
66396;BME280;53207;51.378;-1.342;2023-02-23T02:12:47;100205.10;;;17.88;37.59
66396;BME280;53207;51.378;-1.342;2023-02-23T02:15:15;100205.66;;;17.82;37.63
66396;BME280;53207;51.378;-1.342;2023-02-23T02:17:46;100206.33;;;17.71;37.73
66396;BME280;53207;51.378;-1.342;2023-02-23T02:20:47;100206.21;;;17.68;37.74
66396;BME280;53207;51.378;-1.342;2023-02-23T02:23:33;100204.20;;;17.76;37.58
66396;BME280;53207;51.378;-1.342;2023-02-23T02:26:17;100202.43;;;17.74;37.58
66396;BME280;53207;51.378;-1.342;2023-02-23T02:29:05;100206.55;;;18.00;37.56
66396;BME280;53207;51.378;-1.342;2023-02-23T02:32:58;100206.30;;;17.65;37.64
66396;BME280;53207;51.378;-1.342;2023-02-23T02:36:04;100209.76;;;17.75;37.50
66396;BME280;53207;51.378;-1.342;2023-02-23T02:38:44;100211.72;;;17.69;37.51
66396;BME280;53207;51.378;-1.342;2023-02-23T02:41:17;100209.69;;;17.71;37.45
66396;BME280;53207;51.378;-1.342;2023-02-23T02:43:49;100210.75;;;17.67;37.48
66396;BME280;53207;51.378;-1.342;2023-02-23T02:46:22;100210.61;;;17.58;37.55
66396;BME280;53207;51.378;-1.342;2023-02-23T02:48:57;100209.68;;;17.64;37.50
66396;BME280;53207;51.378;-1.342;2023-02-23T02:51:29;100212.20;;;17.67;37.41
66396;BME280;53207;51.378;-1.342;2023-02-23T02:54:02;100209.68;;;17.69;37.34
66396;BME280;53207;51.378;-1.342;2023-02-23T02:56:35;100213.61;;;17.64;37.38
66396;BME280;53207;51.378;-1.342;2023-02-23T02:59:03;100213.76;;;17.68;37.27
66396;BME280;53207;51.378;-1.342;2023-02-23T03:01:30;100213.58;;;17.77;37.15
66396;BME280;53207;51.378;-1.342;2023-02-23T03:03:58;100215.41;;;17.71;37.21
66396;BME280;53207;51.378;-1.342;2023-02-23T03:06:30;100217.39;;;18.02;37.14
66396;BME280;53207;51.378;-1.342;2023-02-23T03:09:03;100214.00;;;17.66;37.19
66396;BME280;53207;51.378;-1.342;2023-02-23T03:11:38;100215.60;;;17.72;37.11
66396;BME280;53207;51.378;-1.342;2023-02-23T03:14:16;100217.56;;;17.70;37.10
66396;BME280;53207;51.378;-1.342;2023-02-23T03:16:57;100216.19;;;17.70;37.06
66396;BME280;53207;51.378;-1.342;2023-02-23T03:19:27;100216.85;;;17.80;36.89
66396;BME280;53207;51.378;-1.342;2023-02-23T03:22:09;100218.26;;;17.72;36.97
66396;BME280;53207;51.378;-1.342;2023-02-23T03:24:41;100217.65;;;17.65;37.06
66396;BME280;53207;51.378;-1.342;2023-02-23T03:27:18;100219.28;;;17.71;36.95
66396;BME280;53207;51.378;-1.342;2023-02-23T03:29:53;100219.76;;;17.67;37.00
66396;BME280;53207;51.378;-1.342;2023-02-23T03:32:28;100220.82;;;17.60;37.02
66396;BME280;53207;51.378;-1.342;2023-02-23T03:35:01;100224.70;;;17.61;37.00
66396;BME280;53207;51.378;-1.342;2023-02-23T03:37:34;100223.02;;;17.67;36.89
66396;BME280;53207;51.378;-1.342;2023-02-23T03:40:08;100225.13;;;17.57;36.98
66396;BME280;53207;51.378;-1.342;2023-02-23T03:42:39;100223.70;;;17.63;36.92
66396;BME280;53207;51.378;-1.342;2023-02-23T03:45:12;100227.29;;;17.56;36.95
66396;BME280;53207;51.378;-1.342;2023-02-23T03:47:43;100227.66;;;17.59;36.90
66396;BME280;53207;51.378;-1.342;2023-02-23T03:50:23;100228.56;;;17.64;36.83
66396;BME280;53207;51.378;-1.342;2023-02-23T03:52:55;100228.94;;;17.60;36.84
66396;BME280;53207;51.378;-1.342;2023-02-23T03:55:27;100228.58;;;17.86;36.84
66396;BME280;53207;51.378;-1.342;2023-02-23T03:57:59;100231.05;;;17.56;36.84
66396;BME280;53207;51.378;-1.342;2023-02-23T04:00:31;100227.27;;;17.53;36.86
66396;BME280;53207;51.378;-1.342;2023-02-23T04:03:03;100231.67;;;17.54;36.83
66396;BME280;53207;51.378;-1.342;2023-02-23T04:05:34;100232.99;;;17.56;36.80
66396;BME280;53207;51.378;-1.342;2023-02-23T04:08:06;100236.32;;;17.50;36.85
66396;BME280;53207;51.378;-1.342;2023-02-23T04:10:40;100240.16;;;17.50;36.85
66396;BME280;53207;51.378;-1.342;2023-02-23T04:13:13;100239.47;;;17.54;36.75
66396;BME280;53207;51.378;-1.342;2023-02-23T04:15:48;100240.22;;;17.74;36.80
66396;BME280;53207;51.378;-1.342;2023-02-23T04:18:21;100242.22;;;17.51;36.73
66396;BME280;53207;51.378;-1.342;2023-02-23T04:20:49;100240.15;;;17.45;36.79
66396;BME280;53207;51.378;-1.342;2023-02-23T04:23:16;100243.37;;;17.48;36.74
66396;BME280;53207;51.378;-1.342;2023-02-23T04:25:43;100243.47;;;17.72;36.77
66396;BME280;53207;51.378;-1.342;2023-02-23T04:28:10;100246.96;;;17.75;36.70
66396;BME280;53207;51.378;-1.342;2023-02-23T04:30:38;100244.33;;;17.32;36.86
66396;BME280;53207;51.378;-1.342;2023-02-23T04:33:06;100245.11;;;17.38;36.79
66396;BME280;53207;51.378;-1.342;2023-02-23T04:35:33;100246.76;;;17.67;36.75
66396;BME280;53207;51.378;-1.342;2023-02-23T04:38:01;100251.57;;;17.37;36.76
66396;BME280;53207;51.378;-1.342;2023-02-23T04:40:28;100252.25;;;17.81;36.78
66396;BME280;53207;51.378;-1.342;2023-02-23T04:42:57;100253.28;;;17.33;36.75
66396;BME280;53207;51.378;-1.342;2023-02-23T04:45:25;100258.75;;;17.34;36.69
66396;BME280;53207;51.378;-1.342;2023-02-23T04:47:52;100262.31;;;17.54;36.79
66396;BME280;53207;51.378;-1.342;2023-02-23T04:50:20;100264.94;;;17.62;36.68
66396;BME280;53207;51.378;-1.342;2023-02-23T04:52:47;100267.91;;;17.26;36.76
66396;BME280;53207;51.378;-1.342;2023-02-23T04:55:18;100273.14;;;17.27;36.71
66396;BME280;53207;51.378;-1.342;2023-02-23T04:57:45;100281.87;;;17.77;36.69
66396;BME280;53207;51.378;-1.342;2023-02-23T05:00:13;100283.04;;;17.25;36.73
66396;BME280;53207;51.378;-1.342;2023-02-23T05:02:41;100284.97;;;17.77;36.68
66396;BME280;53207;51.378;-1.342;2023-02-23T05:05:08;100282.93;;;17.27;36.63
66396;BME280;53207;51.378;-1.342;2023-02-23T05:07:36;100288.38;;;17.64;36.75
66396;BME280;53207;51.378;-1.342;2023-02-23T05:10:05;100290.36;;;17.22;36.67
66396;BME280;53207;51.378;-1.342;2023-02-23T05:12:33;100293.96;;;17.22;36.63
66396;BME280;53207;51.378;-1.342;2023-02-23T05:15:00;100291.74;;;17.25;36.59
66396;BME280;53207;51.378;-1.342;2023-02-23T05:17:27;100296.08;;;17.24;36.58
66396;BME280;53207;51.378;-1.342;2023-02-23T05:19:55;100302.14;;;17.16;36.68
66396;BME280;53207;51.378;-1.342;2023-02-23T05:22:22;100306.64;;;17.18;36.61
66396;BME280;53207;51.378;-1.342;2023-02-23T05:24:49;100312.18;;;17.24;36.55
66396;BME280;53207;51.378;-1.342;2023-02-23T05:27:17;100313.63;;;17.42;36.59
66396;BME280;53207;51.378;-1.342;2023-02-23T05:29:44;100314.33;;;17.38;36.63
66396;BME280;53207;51.378;-1.342;2023-02-23T05:32:11;100319.70;;;17.67;36.58
66396;BME280;53207;51.378;-1.342;2023-02-23T05:34:38;100321.44;;;17.59;36.62
66396;BME280;53207;51.378;-1.342;2023-02-23T05:37:06;100323.57;;;17.12;36.59
66396;BME280;53207;51.378;-1.342;2023-02-23T05:39:33;100329.12;;;17.35;36.64
66396;BME280;53207;51.378;-1.342;2023-02-23T05:42:00;100331.12;;;17.04;36.65
66396;BME280;53207;51.378;-1.342;2023-02-23T05:44:28;100331.32;;;17.34;36.59
66396;BME280;53207;51.378;-1.342;2023-02-23T05:46:55;100331.99;;;17.23;36.74
66396;BME280;53207;51.378;-1.342;2023-02-23T05:49:22;100332.00;;;17.01;36.66
66396;BME280;53207;51.378;-1.342;2023-02-23T05:51:50;100332.23;;;17.07;36.56
66396;BME280;53207;51.378;-1.342;2023-02-23T05:54:17;100339.38;;;17.55;36.55
66396;BME280;53207;51.378;-1.342;2023-02-23T05:56:44;100345.97;;;17.02;36.59
66396;BME280;53207;51.378;-1.342;2023-02-23T05:59:12;100354.33;;;17.23;36.65
66396;BME280;53207;51.378;-1.342;2023-02-23T06:01:39;100359.04;;;17.49;36.58
66396;BME280;53207;51.378;-1.342;2023-02-23T06:04:06;100361.54;;;17.43;36.63
66396;BME280;53207;51.378;-1.342;2023-02-23T06:06:34;100363.27;;;17.42;36.61
66396;BME280;53207;51.378;-1.342;2023-02-23T06:09:01;100362.53;;;16.90;36.66
66396;BME280;53207;51.378;-1.342;2023-02-23T06:11:28;100361.69;;;17.25;36.64
66396;BME280;53207;51.378;-1.342;2023-02-23T06:13:57;100360.64;;;17.28;36.59
66396;BME280;53207;51.378;-1.342;2023-02-23T06:16:24;100359.98;;;16.92;36.71
66396;BME280;53207;51.378;-1.342;2023-02-23T06:18:51;100359.89;;;17.20;36.71
66396;BME280;53207;51.378;-1.342;2023-02-23T06:21:18;100364.16;;;17.38;36.79
66396;BME280;53207;51.378;-1.342;2023-02-23T06:23:46;100361.75;;;17.15;36.76
66396;BME280;53207;51.378;-1.342;2023-02-23T06:26:13;100362.00;;;17.37;36.77
66396;BME280;53207;51.378;-1.342;2023-02-23T06:28:40;100364.87;;;17.35;36.77
66396;BME280;53207;51.378;-1.342;2023-02-23T06:31:08;100365.85;;;17.12;36.77
66396;BME280;53207;51.378;-1.342;2023-02-23T06:33:35;100372.70;;;17.08;36.83
66396;BME280;53207;51.378;-1.342;2023-02-23T06:36:03;100373.83;;;17.34;36.80
66396;BME280;53207;51.378;-1.342;2023-02-23T06:38:30;100376.52;;;17.46;36.67
66396;BME280;53207;51.378;-1.342;2023-02-23T06:40:57;100379.09;;;17.33;36.61
66396;BME280;53207;51.378;-1.342;2023-02-23T06:43:24;100380.65;;;17.58;36.75
66396;BME280;53207;51.378;-1.342;2023-02-23T06:45:51;100381.18;;;17.49;36.71
66396;BME280;53207;51.378;-1.342;2023-02-23T06:48:19;100379.88;;;17.80;36.85
66396;BME280;53207;51.378;-1.342;2023-02-23T06:50:46;100380.44;;;17.75;36.96
66396;BME280;53207;51.378;-1.342;2023-02-23T06:53:13;100374.25;;;17.62;36.86
66396;BME280;53207;51.378;-1.342;2023-02-23T06:55:41;100380.80;;;17.73;36.78
66396;BME280;53207;51.378;-1.342;2023-02-23T06:58:08;100381.96;;;17.82;36.74
66396;BME280;53207;51.378;-1.342;2023-02-23T07:00:35;100383.44;;;17.98;36.63
66396;BME280;53207;51.378;-1.342;2023-02-23T07:03:03;100385.07;;;18.03;36.65
66396;BME280;53207;51.378;-1.342;2023-02-23T07:05:30;100386.69;;;18.12;36.63
66396;BME280;53207;51.378;-1.342;2023-02-23T07:07:57;100388.00;;;18.23;36.57
66396;BME280;53207;51.378;-1.342;2023-02-23T07:10:24;100384.66;;;18.36;36.46
66396;BME280;53207;51.378;-1.342;2023-02-23T07:12:52;100392.36;;;18.46;36.36
66396;BME280;53207;51.378;-1.342;2023-02-23T07:15:20;100392.94;;;18.37;36.20
66396;BME280;53207;51.378;-1.342;2023-02-23T07:17:47;100398.63;;;18.67;36.11
66396;BME280;53207;51.378;-1.342;2023-02-23T07:20:15;100404.68;;;18.75;36.02
66396;BME280;53207;51.378;-1.342;2023-02-23T07:22:42;100410.23;;;18.57;35.95
66396;BME280;53207;51.378;-1.342;2023-02-23T07:25:09;100413.53;;;18.90;35.83
66396;BME280;53207;51.378;-1.342;2023-02-23T07:27:37;100420.59;;;18.90;35.88
66396;BME280;53207;51.378;-1.342;2023-02-23T07:30:05;100426.54;;;18.82;35.83
66396;BME280;53207;51.378;-1.342;2023-02-23T07:32:33;100431.71;;;18.87;35.93
66396;BME280;53207;51.378;-1.342;2023-02-23T07:35:00;100431.77;;;18.91;35.91
66396;BME280;53207;51.378;-1.342;2023-02-23T07:37:27;100431.71;;;18.66;35.99
66396;BME280;53207;51.378;-1.342;2023-02-23T07:39:55;100430.73;;;18.89;36.03
66396;BME280;53207;51.378;-1.342;2023-02-23T07:42:22;100436.31;;;18.92;36.02
66396;BME280;53207;51.378;-1.342;2023-02-23T07:44:49;100438.27;;;18.93;36.00
66396;BME280;53207;51.378;-1.342;2023-02-23T07:47:16;100442.41;;;18.87;36.13
66396;BME280;53207;51.378;-1.342;2023-02-23T07:49:44;100444.37;;;18.67;36.25
66396;BME280;53207;51.378;-1.342;2023-02-23T07:52:11;100445.86;;;18.96;36.17
66396;BME280;53207;51.378;-1.342;2023-02-23T07:54:38;100455.24;;;19.13;36.47
66396;BME280;53207;51.378;-1.342;2023-02-23T07:57:06;100457.12;;;19.07;36.73
66396;BME280;53207;51.378;-1.342;2023-02-23T07:59:33;100460.61;;;19.19;36.78
66396;BME280;53207;51.378;-1.342;2023-02-23T08:02:00;100461.09;;;19.22;36.73
66396;BME280;53207;51.378;-1.342;2023-02-23T08:04:27;100457.99;;;18.83;36.89
66396;BME280;53207;51.378;-1.342;2023-02-23T08:06:55;100462.45;;;18.97;36.65
66396;BME280;53207;51.378;-1.342;2023-02-23T08:09:22;100454.71;;;19.17;36.67
66396;BME280;53207;51.378;-1.342;2023-02-23T08:11:49;100455.17;;;18.83;36.87
66396;BME280;53207;51.378;-1.342;2023-02-23T08:14:17;100456.78;;;18.90;36.82
66396;BME280;53207;51.378;-1.342;2023-02-23T08:16:44;100456.17;;;18.91;36.81
66396;BME280;53207;51.378;-1.342;2023-02-23T08:19:11;100462.97;;;18.80;36.94
66396;BME280;53207;51.378;-1.342;2023-02-23T08:21:38;100458.15;;;18.90;36.73
66396;BME280;53207;51.378;-1.342;2023-02-23T08:24:06;100456.54;;;18.94;36.61
66396;BME280;53207;51.378;-1.342;2023-02-23T08:26:34;100461.78;;;19.10;36.67
66396;BME280;53207;51.378;-1.342;2023-02-23T08:29:01;100467.62;;;18.87;36.63
66396;BME280;53207;51.378;-1.342;2023-02-23T08:31:29;100475.12;;;18.95;36.76
66396;BME280;53207;51.378;-1.342;2023-02-23T08:33:57;100486.65;;;18.84;36.63
66396;BME280;53207;51.378;-1.342;2023-02-23T08:36:24;100482.88;;;19.07;36.61
66396;BME280;53207;51.378;-1.342;2023-02-23T08:38:51;100483.95;;;19.10;36.53
66396;BME280;53207;51.378;-1.342;2023-02-23T08:41:19;100484.46;;;18.90;36.50
66396;BME280;53207;51.378;-1.342;2023-02-23T08:43:47;100493.66;;;18.89;36.44
66396;BME280;53207;51.378;-1.342;2023-02-23T08:46:14;100499.13;;;18.92;36.38
66396;BME280;53207;51.378;-1.342;2023-02-23T08:48:41;100505.11;;;18.88;36.39
66396;BME280;53207;51.378;-1.342;2023-02-23T08:51:09;100507.07;;;19.16;36.29
66396;BME280;53207;51.378;-1.342;2023-02-23T08:53:36;100510.35;;;18.75;36.49
66396;BME280;53207;51.378;-1.342;2023-02-23T08:56:05;100516.84;;;18.90;36.29
66396;BME280;53207;51.378;-1.342;2023-02-23T08:58:34;100524.22;;;18.84;36.34
66396;BME280;53207;51.378;-1.342;2023-02-23T09:01:02;100521.86;;;18.54;36.33
66396;BME280;53207;51.378;-1.342;2023-02-23T09:03:30;100520.02;;;18.97;36.09
66396;BME280;53207;51.378;-1.342;2023-02-23T09:06:05;100514.67;;;18.58;36.21
66396;BME280;53207;51.378;-1.342;2023-02-23T09:08:33;100510.93;;;18.73;36.00
66396;BME280;53207;51.378;-1.342;2023-02-23T09:11:00;100512.61;;;18.89;36.05
66396;BME280;53207;51.378;-1.342;2023-02-23T09:13:27;100507.65;;;18.71;35.90
66396;BME280;53207;51.378;-1.342;2023-02-23T09:15:54;100509.07;;;18.95;35.89
66396;BME280;53207;51.378;-1.342;2023-02-23T09:18:22;100501.73;;;18.97;35.81
66396;BME280;53207;51.378;-1.342;2023-02-23T09:20:49;100501.74;;;18.94;35.85
66396;BME280;53207;51.378;-1.342;2023-02-23T09:23:16;100505.07;;;18.54;35.97
66396;BME280;53207;51.378;-1.342;2023-02-23T09:25:44;100503.07;;;18.89;35.85
66396;BME280;53207;51.378;-1.342;2023-02-23T09:28:12;100505.85;;;18.57;35.90
66396;BME280;53207;51.378;-1.342;2023-02-23T09:30:40;100518.88;;;19.02;35.93
66396;BME280;53207;51.378;-1.342;2023-02-23T09:33:08;100531.99;;;19.05;35.86
66396;BME280;53207;51.378;-1.342;2023-02-23T09:35:36;100533.67;;;18.81;35.85
66396;BME280;53207;51.378;-1.342;2023-02-23T09:38:05;100533.91;;;18.33;36.07
66396;BME280;53207;51.378;-1.342;2023-02-23T09:40:44;100538.39;;;18.51;35.82
66396;BME280;53207;51.378;-1.342;2023-02-23T09:43:14;100539.36;;;18.95;35.85
66396;BME280;53207;51.378;-1.342;2023-02-23T09:45:45;100540.93;;;18.37;35.92
66396;BME280;53207;51.378;-1.342;2023-02-23T09:48:16;100546.36;;;18.57;35.95
66396;BME280;53207;51.378;-1.342;2023-02-23T09:50:49;100546.27;;;18.68;36.07
66396;BME280;53207;51.378;-1.342;2023-02-23T09:53:25;100545.54;;;18.49;36.01
66396;BME280;53207;51.378;-1.342;2023-02-23T09:55:57;100545.70;;;18.42;36.05
66396;BME280;53207;51.378;-1.342;2023-02-23T09:58:27;100542.38;;;18.62;36.06
66396;BME280;53207;51.378;-1.342;2023-02-23T10:01:13;100552.05;;;18.24;36.23
66396;BME280;53207;51.378;-1.342;2023-02-23T10:03:49;100550.39;;;18.31;36.12
66396;BME280;53207;51.378;-1.342;2023-02-23T10:06:19;100551.25;;;18.45;36.19
66396;BME280;53207;51.378;-1.342;2023-02-23T10:08:55;100553.71;;;18.22;36.19
66396;BME280;53207;51.378;-1.342;2023-02-23T10:11:28;100555.14;;;18.43;36.17
66396;BME280;53207;51.378;-1.342;2023-02-23T10:14:16;100555.78;;;17.82;36.28
66396;BME280;53207;51.378;-1.342;2023-02-23T10:16:57;100560.58;;;18.27;36.28
66396;BME280;53207;51.378;-1.342;2023-02-23T10:19:33;100560.61;;;18.24;36.29
66396;BME280;53207;51.378;-1.342;2023-02-23T10:22:05;100567.32;;;18.24;36.26
66396;BME280;53207;51.378;-1.342;2023-02-23T10:24:37;100564.53;;;18.25;36.24
66396;BME280;53207;51.378;-1.342;2023-02-23T10:27:09;100568.79;;;17.96;36.28
66396;BME280;53207;51.378;-1.342;2023-02-23T10:29:41;100570.71;;;17.88;36.36
66396;BME280;53207;51.378;-1.342;2023-02-23T10:32:17;100574.24;;;18.17;36.25
66396;BME280;53207;51.378;-1.342;2023-02-23T10:34:48;100575.77;;;18.14;36.28
66396;BME280;53207;51.378;-1.342;2023-02-23T10:37:16;100578.82;;;18.11;36.27
66396;BME280;53207;51.378;-1.342;2023-02-23T10:39:44;100577.72;;;18.07;36.32
66396;BME280;53207;51.378;-1.342;2023-02-23T10:42:14;100584.08;;;18.16;36.17
66396;BME280;53207;51.378;-1.342;2023-02-23T10:44:44;100593.08;;;17.98;36.39
66396;BME280;53207;51.378;-1.342;2023-02-23T10:47:14;100596.24;;;17.95;36.42
66396;BME280;53207;51.378;-1.342;2023-02-23T10:49:44;100599.87;;;18.04;36.29
66396;BME280;53207;51.378;-1.342;2023-02-23T10:52:14;100599.98;;;17.98;36.35
66396;BME280;53207;51.378;-1.342;2023-02-23T10:54:45;100600.72;;;17.98;36.32
66396;BME280;53207;51.378;-1.342;2023-02-23T10:57:21;100607.72;;;18.02;36.24
66396;BME280;53207;51.378;-1.342;2023-02-23T11:00:55;100610.30;;;17.75;36.28
66396;BME280;53207;51.378;-1.342;2023-02-23T11:03:28;100612.18;;;18.00;36.23
66396;BME280;53207;51.378;-1.342;2023-02-23T11:05:56;100616.74;;;17.87;36.35
66396;BME280;53207;51.378;-1.342;2023-02-23T11:08:31;100617.28;;;18.22;36.26
66396;BME280;53207;51.378;-1.342;2023-02-23T11:11:02;100615.95;;;17.68;36.28
66396;BME280;53207;51.378;-1.342;2023-02-23T11:13:36;100620.37;;;17.87;36.29
66396;BME280;53207;51.378;-1.342;2023-02-23T11:16:07;100616.06;;;17.82;36.32
66396;BME280;53207;51.378;-1.342;2023-02-23T11:18:38;100615.75;;;17.61;36.30
66396;BME280;53207;51.378;-1.342;2023-02-23T11:21:10;100615.15;;;17.85;36.25
66396;BME280;53207;51.378;-1.342;2023-02-23T11:23:39;100614.04;;;17.80;36.33
66396;BME280;53207;51.378;-1.342;2023-02-23T11:26:20;100612.36;;;17.61;36.28
66396;BME280;53207;51.378;-1.342;2023-02-23T11:28:51;100620.10;;;17.73;36.38
66396;BME280;53207;51.378;-1.342;2023-02-23T11:31:22;100616.83;;;17.82;36.26
66396;BME280;53207;51.378;-1.342;2023-02-23T11:33:55;100620.14;;;17.53;36.33
66396;BME280;53207;51.378;-1.342;2023-02-23T11:36:27;100616.32;;;17.77;36.29
66396;BME280;53207;51.378;-1.342;2023-02-23T11:39:06;100614.42;;;17.73;36.33
66396;BME280;53207;51.378;-1.342;2023-02-23T11:41:34;100609.73;;;17.75;36.28
66396;BME280;53207;51.378;-1.342;2023-02-23T11:44:02;100612.39;;;17.65;36.40
66396;BME280;53207;51.378;-1.342;2023-02-23T11:46:31;100615.56;;;17.72;36.30
66396;BME280;53207;51.378;-1.342;2023-02-23T11:49:04;100619.90;;;17.62;36.41
66396;BME280;53207;51.378;-1.342;2023-02-23T11:51:34;100616.76;;;17.60;36.41
66396;BME280;53207;51.378;-1.342;2023-02-23T11:54:03;100616.29;;;17.62;36.38
66396;BME280;53207;51.378;-1.342;2023-02-23T11:56:33;100617.33;;;17.72;36.26
66396;BME280;53207;51.378;-1.342;2023-02-23T11:59:02;100610.27;;;17.72;36.26
66396;BME280;53207;51.378;-1.342;2023-02-23T12:01:39;100607.51;;;17.72;36.23
66396;BME280;53207;51.378;-1.342;2023-02-23T12:04:09;100607.08;;;17.78;36.16
66396;BME280;53207;51.378;-1.342;2023-02-23T12:06:49;100611.45;;;17.69;36.28
66396;BME280;53207;51.378;-1.342;2023-02-23T12:09:21;100614.13;;;17.70;36.24
66396;BME280;53207;51.378;-1.342;2023-02-23T12:11:53;100607.98;;;17.68;36.24
66396;BME280;53207;51.378;-1.342;2023-02-23T12:14:29;100606.81;;;17.60;36.33
66396;BME280;53207;51.378;-1.342;2023-02-23T12:17:02;100603.72;;;17.57;36.38
66396;BME280;53207;51.378;-1.342;2023-02-23T12:19:35;100605.73;;;17.62;36.29
66396;BME280;53207;51.378;-1.342;2023-02-23T12:22:09;100608.42;;;17.64;36.22
66396;BME280;53207;51.378;-1.342;2023-02-23T12:24:42;100610.02;;;17.50;36.38
66396;BME280;53207;51.378;-1.342;2023-02-23T12:27:13;100610.04;;;17.55;36.33
66396;BME280;53207;51.378;-1.342;2023-02-23T12:29:54;100612.03;;;17.59;36.27
66396;BME280;53207;51.378;-1.342;2023-02-23T12:32:28;100615.01;;;17.51;36.34
66396;BME280;53207;51.378;-1.342;2023-02-23T12:35:06;100612.00;;;17.50;36.33
66396;BME280;53207;51.378;-1.342;2023-02-23T12:37:40;100613.18;;;17.56;36.25
66396;BME280;53207;51.378;-1.342;2023-02-23T12:40:15;100615.26;;;17.50;36.33
66396;BME280;53207;51.378;-1.342;2023-02-23T12:42:51;100613.18;;;17.61;36.17
66396;BME280;53207;51.378;-1.342;2023-02-23T12:45:25;100612.28;;;17.55;36.24
66396;BME280;53207;51.378;-1.342;2023-02-23T12:48:02;100612.76;;;17.54;36.25
66396;BME280;53207;51.378;-1.342;2023-02-23T12:50:35;100613.74;;;17.60;36.16
66396;BME280;53207;51.378;-1.342;2023-02-23T12:53:19;100616.09;;;17.55;36.19
66396;BME280;53207;51.378;-1.342;2023-02-23T12:55:59;100612.76;;;17.49;36.26
66396;BME280;53207;51.378;-1.342;2023-02-23T12:58:39;100614.71;;;17.75;36.27